sensor_id;sensor_type;location;lat;lon;timestamp;pressure;altitude;pressure_sealevel;temperature;humidity
13661;BME280;6903;49.480;11.102;2022-08-21T00:00:22;97924.00;;;18.01;100.00
13661;BME280;6903;49.480;11.102;2022-08-21T00:02:52;97924.69;;;17.95;100.00
13661;BME280;6903;49.480;11.102;2022-08-21T00:05:20;97918.66;;;17.93;100.00
13661;BME280;6903;49.480;11.102;2022-08-21T00:07:46;97916.00;;;17.93;100.00
13661;BME280;6903;49.480;11.102;2022-08-21T00:10:12;97921.34;;;17.93;100.00
13661;BME280;6903;49.480;11.102;2022-08-21T00:12:37;97911.34;;;17.95;100.00
13661;BME280;6903;49.480;11.102;2022-08-21T00:15:05;97921.00;;;17.88;100.00
13661;BME280;6903;49.480;11.102;2022-08-21T00:17:30;97912.03;;;17.81;100.00
13661;BME280;6903;49.480;11.102;2022-08-21T00:19:56;97915.69;;;17.80;100.00
13661;BME280;6903;49.480;11.102;2022-08-21T00:22:21;97914.03;;;17.79;100.00
13661;BME280;6903;49.480;11.102;2022-08-21T00:24:46;97916.03;;;17.77;100.00
13661;BME280;6903;49.480;11.102;2022-08-21T00:27:12;97912.69;;;17.75;100.00
13661;BME280;6903;49.480;11.102;2022-08-21T00:29:37;97913.19;;;17.71;100.00
13661;BME280;6903;49.480;11.102;2022-08-21T00:32:02;97909.53;;;17.72;100.00
13661;BME280;6903;49.480;11.102;2022-08-21T00:34:28;97907.00;;;17.70;100.00
13661;BME280;6903;49.480;11.102;2022-08-21T00:36:53;97913.19;;;17.71;100.00
13661;BME280;6903;49.480;11.102;2022-08-21T00:39:18;97913.53;;;17.68;100.00
13661;BME280;6903;49.480;11.102;2022-08-21T00:41:44;97904.84;;;17.58;100.00
13661;BME280;6903;49.480;11.102;2022-08-21T00:44:11;97915.69;;;17.48;100.00
13661;BME280;6903;49.480;11.102;2022-08-21T00:46:38;97903.16;;;17.41;100.00
13661;BME280;6903;49.480;11.102;2022-08-21T00:49:06;97903.16;;;17.33;100.00
13661;BME280;6903;49.480;11.102;2022-08-21T00:51:48;97904.78;;;17.26;100.00
13661;BME280;6903;49.480;11.102;2022-08-21T00:54:14;97905.47;;;17.20;100.00
13661;BME280;6903;49.480;11.102;2022-08-21T00:56:40;97915.44;;;17.18;100.00
13661;BME280;6903;49.480;11.102;2022-08-21T00:59:06;97908.97;;;17.20;100.00
13661;BME280;6903;49.480;11.102;2022-08-21T01:01:32;97907.47;;;17.26;100.00
13661;BME280;6903;49.480;11.102;2022-08-21T01:03:57;97902.81;;;17.28;100.00
13661;BME280;6903;49.480;11.102;2022-08-21T01:06:23;97913.28;;;17.29;100.00
13661;BME280;6903;49.480;11.102;2022-08-21T01:08:48;97915.28;;;17.27;100.00
13661;BME280;6903;49.480;11.102;2022-08-21T01:11:15;97913.47;;;17.36;100.00
13661;BME280;6903;49.480;11.102;2022-08-21T01:13:41;97917.00;;;17.44;100.00
13661;BME280;6903;49.480;11.102;2022-08-21T01:16:11;97912.50;;;17.45;100.00
13661;BME280;6903;49.480;11.102;2022-08-21T01:18:37;97918.50;;;17.47;100.00
13661;BME280;6903;49.480;11.102;2022-08-21T01:21:23;97912.97;;;17.40;100.00
13661;BME280;6903;49.480;11.102;2022-08-21T01:23:52;97915.97;;;17.29;100.00
13661;BME280;6903;49.480;11.102;2022-08-21T01:26:22;97916.13;;;17.28;100.00
13661;BME280;6903;49.480;11.102;2022-08-21T01:29:00;97905.78;;;17.17;100.00
13661;BME280;6903;49.480;11.102;2022-08-21T01:31:27;97902.94;;;17.10;100.00
13661;BME280;6903;49.480;11.102;2022-08-21T01:33:53;97909.59;;;17.06;100.00
13661;BME280;6903;49.480;11.102;2022-08-21T01:36:20;97909.59;;;17.06;100.00
13661;BME280;6903;49.480;11.102;2022-08-21T01:38:46;97920.25;;;17.06;100.00
13661;BME280;6903;49.480;11.102;2022-08-21T01:41:12;97918.41;;;17.07;100.00
13661;BME280;6903;49.480;11.102;2022-08-21T01:43:38;97909.75;;;17.05;100.00
13661;BME280;6903;49.480;11.102;2022-08-21T01:46:03;97913.41;;;17.04;100.00
13661;BME280;6903;49.480;11.102;2022-08-21T01:48:29;97910.09;;;17.10;100.00
13661;BME280;6903;49.480;11.102;2022-08-21T01:50:54;97906.28;;;17.12;100.00
13661;BME280;6903;49.480;11.102;2022-08-21T01:53:20;97905.97;;;17.15;100.00
13661;BME280;6903;49.480;11.102;2022-08-21T01:55:45;97899.28;;;17.11;100.00
13661;BME280;6903;49.480;11.102;2022-08-21T01:58:10;97901.25;;;17.09;100.00
13661;BME280;6903;49.480;11.102;2022-08-21T02:00:36;97908.94;;;17.04;100.00
13661;BME280;6903;49.480;11.102;2022-08-21T02:03:01;97894.94;;;17.02;100.00
13661;BME280;6903;49.480;11.102;2022-08-21T02:05:26;97899.94;;;17.05;100.00
13661;BME280;6903;49.480;11.102;2022-08-21T02:07:55;97892.63;;;17.07;100.00
13661;BME280;6903;49.480;11.102;2022-08-21T02:10:25;97899.94;;;17.13;100.00
13661;BME280;6903;49.480;11.102;2022-08-21T02:12:51;97891.13;;;17.13;100.00
13661;BME280;6903;49.480;11.102;2022-08-21T02:15:17;97897.44;;;17.12;100.00
13661;BME280;6903;49.480;11.102;2022-08-21T02:17:49;97897.28;;;17.21;100.00
13661;BME280;6903;49.480;11.102;2022-08-21T02:20:25;97895.66;;;17.20;100.00
13661;BME280;6903;49.480;11.102;2022-08-21T02:22:51;97891.63;;;17.24;100.00
13661;BME280;6903;49.480;11.102;2022-08-21T02:25:17;97894.31;;;17.24;100.00
13661;BME280;6903;49.480;11.102;2022-08-21T02:27:45;97889.13;;;17.23;100.00
13661;BME280;6903;49.480;11.102;2022-08-21T02:30:21;97894.66;;;17.29;100.00
13661;BME280;6903;49.480;11.102;2022-08-21T02:32:47;97882.97;;;17.30;100.00
13661;BME280;6903;49.480;11.102;2022-08-21T02:35:12;97884.00;;;17.37;100.00
13661;BME280;6903;49.480;11.102;2022-08-21T02:40:10;97896.84;;;17.58;100.00
13661;BME280;6903;49.480;11.102;2022-08-21T02:42:36;97897.34;;;17.61;100.00
13661;BME280;6903;49.480;11.102;2022-08-21T02:45:03;97893.19;;;17.59;100.00
13661;BME280;6903;49.480;11.102;2022-08-21T02:47:28;97896.34;;;17.54;100.00
13661;BME280;6903;49.480;11.102;2022-08-21T02:49:53;97887.53;;;17.54;100.00
13661;BME280;6903;49.480;11.102;2022-08-21T02:52:19;97896.69;;;17.67;100.00
13661;BME280;6903;49.480;11.102;2022-08-21T02:54:44;97894.00;;;17.75;100.00
13661;BME280;6903;49.480;11.102;2022-08-21T02:57:09;97893.84;;;17.77;100.00
13661;BME280;6903;49.480;11.102;2022-08-21T02:59:34;97902.19;;;17.74;100.00
13661;BME280;6903;49.480;11.102;2022-08-21T03:02:00;97902.53;;;17.71;100.00
13661;BME280;6903;49.480;11.102;2022-08-21T03:04:25;97904.84;;;17.66;100.00
13661;BME280;6903;49.480;11.102;2022-08-21T03:06:51;97893.03;;;17.60;100.00
13661;BME280;6903;49.480;11.102;2022-08-21T03:09:16;97897.03;;;17.56;100.00
13661;BME280;6903;49.480;11.102;2022-08-21T03:11:42;97895.19;;;17.49;100.00
13661;BME280;6903;49.480;11.102;2022-08-21T03:14:07;97886.16;;;17.34;100.00
13661;BME280;6903;49.480;11.102;2022-08-21T03:16:32;97886.97;;;17.26;100.00
13661;BME280;6903;49.480;11.102;2022-08-21T03:18:58;97884.81;;;17.22;100.00
13661;BME280;6903;49.480;11.102;2022-08-21T03:21:23;97892.13;;;17.20;100.00
13661;BME280;6903;49.480;11.102;2022-08-21T03:23:48;97883.63;;;17.24;100.00
13661;BME280;6903;49.480;11.102;2022-08-21T03:26:14;97891.47;;;17.18;100.00
13661;BME280;6903;49.480;11.102;2022-08-21T03:28:39;97891.44;;;17.10;100.00
13661;BME280;6903;49.480;11.102;2022-08-21T03:31:05;97894.94;;;17.02;100.00
13661;BME280;6903;49.480;11.102;2022-08-21T03:33:30;97897.59;;;17.02;100.00
13661;BME280;6903;49.480;11.102;2022-08-21T03:36:06;97893.25;;;17.09;100.00
13661;BME280;6903;49.480;11.102;2022-08-21T03:38:33;97901.59;;;17.06;100.00
13661;BME280;6903;49.480;11.102;2022-08-21T03:41:00;97902.91;;;16.94;100.00
13661;BME280;6903;49.480;11.102;2022-08-21T03:43:26;97907.22;;;16.87;100.00
13661;BME280;6903;49.480;11.102;2022-08-21T03:45:51;97910.69;;;16.79;100.00
13661;BME280;6903;49.480;11.102;2022-08-21T03:48:17;97912.66;;;16.77;100.00
13661;BME280;6903;49.480;11.102;2022-08-21T03:50:43;97910.19;;;16.84;100.00
13661;BME280;6903;49.480;11.102;2022-08-21T03:53:11;97917.00;;;16.86;100.00
13661;BME280;6903;49.480;11.102;2022-08-21T03:55:37;97912.84;;;16.76;100.00
13661;BME280;6903;49.480;11.102;2022-08-21T03:58:03;97916.50;;;16.75;100.00
13661;BME280;6903;49.480;11.102;2022-08-21T04:00:28;97915.81;;;16.73;100.00
13661;BME280;6903;49.480;11.102;2022-08-21T04:02:54;97918.13;;;16.68;100.00
13661;BME280;6903;49.480;11.102;2022-08-21T04:05:20;97915.13;;;16.71;100.00
13661;BME280;6903;49.480;11.102;2022-08-21T04:08:03;97917.81;;;16.71;100.00
13661;BME280;6903;49.480;11.102;2022-08-21T04:10:30;97923.28;;;16.69;100.00
13661;BME280;6903;49.480;11.102;2022-08-21T04:12:56;97923.13;;;16.71;100.00
13661;BME280;6903;49.480;11.102;2022-08-21T04:15:23;97923.97;;;16.71;100.00
13661;BME280;6903;49.480;11.102;2022-08-21T04:17:49;97921.31;;;16.71;100.00
13661;BME280;6903;49.480;11.102;2022-08-21T04:20:16;97925.53;;;16.90;100.00
13661;BME280;6903;49.480;11.102;2022-08-21T04:22:42;97922.72;;;16.99;100.00
13661;BME280;6903;49.480;11.102;2022-08-21T04:25:07;97926.59;;;17.13;100.00
13661;BME280;6903;49.480;11.102;2022-08-21T04:27:34;97927.78;;;17.19;100.00
13661;BME280;6903;49.480;11.102;2022-08-21T04:29:59;97924.63;;;17.23;100.00
13661;BME280;6903;49.480;11.102;2022-08-21T04:32:25;97922.28;;;17.20;100.00
13661;BME280;6903;49.480;11.102;2022-08-21T04:35:01;97929.47;;;17.28;100.00
13661;BME280;6903;49.480;11.102;2022-08-21T04:37:27;97929.28;;;17.29;100.00
13661;BME280;6903;49.480;11.102;2022-08-21T04:39:52;97933.31;;;17.41;100.00
13661;BME280;6903;49.480;11.102;2022-08-21T04:42:18;97931.69;;;17.48;100.00
13661;BME280;6903;49.480;11.102;2022-08-21T04:44:43;97928.16;;;17.56;100.00
13661;BME280;6903;49.480;11.102;2022-08-21T04:47:09;97938.84;;;17.56;100.00
13661;BME280;6903;49.480;11.102;2022-08-21T04:49:34;97936.69;;;17.59;100.00
13661;BME280;6903;49.480;11.102;2022-08-21T04:52:00;97936.34;;;17.62;100.00
13661;BME280;6903;49.480;11.102;2022-08-21T04:54:26;97939.19;;;17.69;100.00
13661;BME280;6903;49.480;11.102;2022-08-21T04:56:55;97945.03;;;17.80;100.00
13661;BME280;6903;49.480;11.102;2022-08-21T04:59:28;97947.19;;;17.85;100.00
13661;BME280;6903;49.480;11.102;2022-08-21T05:01:56;97958.03;;;17.91;100.00
13661;BME280;6903;49.480;11.102;2022-08-21T05:04:25;97961.03;;;17.96;100.00
13661;BME280;6903;49.480;11.102;2022-08-21T05:06:52;97974.19;;;17.98;100.00
13661;BME280;6903;49.480;11.102;2022-08-21T05:09:19;97972.69;;;18.03;100.00
13661;BME280;6903;49.480;11.102;2022-08-21T05:11:45;97967.53;;;18.02;100.00
13661;BME280;6903;49.480;11.102;2022-08-21T05:14:11;97972.03;;;18.01;100.00
13661;BME280;6903;49.480;11.102;2022-08-21T05:16:37;97977.19;;;18.03;100.00
13661;BME280;6903;49.480;11.102;2022-08-21T05:19:03;97969.53;;;18.08;100.00
13661;BME280;6903;49.480;11.102;2022-08-21T05:21:29;97962.69;;;18.13;100.00
13661;BME280;6903;49.480;11.102;2022-08-21T05:23:54;97961.84;;;18.21;100.00
13661;BME280;6903;49.480;11.102;2022-08-21T05:26:19;97968.19;;;18.20;100.00
13661;BME280;6903;49.480;11.102;2022-08-21T05:28:44;97962.69;;;18.21;100.00
13661;BME280;6903;49.480;11.102;2022-08-21T05:31:10;97975.00;;;18.22;100.00
13661;BME280;6903;49.480;11.102;2022-08-21T05:33:35;97974.00;;;18.15;100.00
13661;BME280;6903;49.480;11.102;2022-08-21T05:36:00;97976.69;;;18.15;100.00
13661;BME280;6903;49.480;11.102;2022-08-21T05:38:26;97978.19;;;18.18;100.00
13661;BME280;6903;49.480;11.102;2022-08-21T05:40:53;97974.00;;;18.15;100.00
13661;BME280;6903;49.480;11.102;2022-08-21T05:43:19;97977.19;;;18.19;100.00
13661;BME280;6903;49.480;11.102;2022-08-21T05:45:45;97982.66;;;18.33;100.00
13661;BME280;6903;49.480;11.102;2022-08-21T05:48:16;97979.03;;;18.43;100.00
13661;BME280;6903;49.480;11.102;2022-08-21T05:50:44;97980.66;;;18.52;100.00
13661;BME280;6903;49.480;11.102;2022-08-21T05:53:10;97981.84;;;18.57;100.00
13661;BME280;6903;49.480;11.102;2022-08-21T05:55:37;97978.97;;;18.67;100.00
13661;BME280;6903;49.480;11.102;2022-08-21T05:58:03;97980.94;;;18.73;100.00
13661;BME280;6903;49.480;11.102;2022-08-21T06:00:29;97977.78;;;18.69;100.00
13661;BME280;6903;49.480;11.102;2022-08-21T06:02:54;97974.88;;;18.87;100.00
13661;BME280;6903;49.480;11.102;2022-08-21T06:05:20;97982.81;;;19.03;100.00
13661;BME280;6903;49.480;11.102;2022-08-21T06:07:45;97981.66;;;19.05;100.00
13661;BME280;6903;49.480;11.102;2022-08-21T06:10:10;97986.25;;;18.81;100.00
13661;BME280;6903;49.480;11.102;2022-08-21T06:12:36;97986.34;;;18.57;100.00
13661;BME280;6903;49.480;11.102;2022-08-21T06:15:01;97992.66;;;18.72;100.00
13661;BME280;6903;49.480;11.102;2022-08-21T06:17:26;97978.22;;;18.89;100.00
13661;BME280;6903;49.480;11.102;2022-08-21T06:19:53;97984.34;;;19.05;100.00
13661;BME280;6903;49.480;11.102;2022-08-21T06:22:19;97992.19;;;19.07;100.00
13661;BME280;6903;49.480;11.102;2022-08-21T06:24:45;97988.94;;;19.19;100.00
13661;BME280;6903;49.480;11.102;2022-08-21T06:27:10;97995.88;;;19.36;100.00
13661;BME280;6903;49.480;11.102;2022-08-21T06:29:36;97990.13;;;19.47;100.00
13661;BME280;6903;49.480;11.102;2022-08-21T06:32:01;97999.91;;;19.63;100.00
13661;BME280;6903;49.480;11.102;2022-08-21T06:34:27;97993.91;;;19.61;100.00
13661;BME280;6903;49.480;11.102;2022-08-21T06:36:53;97994.91;;;19.37;100.00
13661;BME280;6903;49.480;11.102;2022-08-21T06:39:18;98003.78;;;19.30;100.00
13661;BME280;6903;49.480;11.102;2022-08-21T06:41:44;98000.63;;;19.26;100.00
13661;BME280;6903;49.480;11.102;2022-08-21T06:44:10;97997.44;;;19.23;100.00
13661;BME280;6903;49.480;11.102;2022-08-21T06:46:36;98004.78;;;19.29;100.00
13661;BME280;6903;49.480;11.102;2022-08-21T06:49:01;98006.78;;;19.27;100.00
13661;BME280;6903;49.480;11.102;2022-08-21T06:51:27;98004.28;;;19.25;100.00
13661;BME280;6903;49.480;11.102;2022-08-21T06:53:53;98005.38;;;19.47;100.00
13661;BME280;6903;49.480;11.102;2022-08-21T06:56:19;98004.38;;;19.70;100.00
13661;BME280;6903;49.480;11.102;2022-08-21T06:58:45;97997.44;;;19.84;100.00
13661;BME280;6903;49.480;11.102;2022-08-21T07:01:10;98003.47;;;20.01;100.00
13661;BME280;6903;49.480;11.102;2022-08-21T07:03:39;97997.88;;;20.18;100.00
13661;BME280;6903;49.480;11.102;2022-08-21T07:06:06;97998.06;;;20.31;100.00
13661;BME280;6903;49.480;11.102;2022-08-21T07:08:32;97995.50;;;20.52;100.00
13661;BME280;6903;49.480;11.102;2022-08-21T07:11:00;97993.69;;;20.67;100.00
13661;BME280;6903;49.480;11.102;2022-08-21T07:13:26;97993.03;;;20.80;100.00
13661;BME280;6903;49.480;11.102;2022-08-21T07:15:51;97997.75;;;20.92;100.00
13661;BME280;6903;49.480;11.102;2022-08-21T07:18:17;97998.59;;;21.08;100.00
13661;BME280;6903;49.480;11.102;2022-08-21T07:20:43;98002.03;;;21.01;100.00
13661;BME280;6903;49.480;11.102;2022-08-21T07:23:11;97995.44;;;20.75;100.00
13661;BME280;6903;49.480;11.102;2022-08-21T07:25:37;98001.34;;;20.56;100.00
13661;BME280;6903;49.480;11.102;2022-08-21T07:28:02;97998.09;;;20.46;100.00
13661;BME280;6903;49.480;11.102;2022-08-21T07:30:28;97998.56;;;20.49;100.00
13661;BME280;6903;49.480;11.102;2022-08-21T07:32:53;98001.44;;;20.62;100.00
13661;BME280;6903;49.480;11.102;2022-08-21T07:35:20;97997.31;;;20.74;100.00
13661;BME280;6903;49.480;11.102;2022-08-21T07:37:45;98003.41;;;20.97;100.00
13661;BME280;6903;49.480;11.102;2022-08-21T07:40:11;97996.84;;;21.15;100.00
13661;BME280;6903;49.480;11.102;2022-08-21T07:42:44;97994.06;;;20.93;100.00
13661;BME280;6903;49.480;11.102;2022-08-21T07:45:11;97994.66;;;21.03;100.00
13661;BME280;6903;49.480;11.102;2022-08-21T07:47:37;98002.81;;;21.31;100.00
13661;BME280;6903;49.480;11.102;2022-08-21T07:50:04;97990.38;;;21.59;100.00
13661;BME280;6903;49.480;11.102;2022-08-21T07:52:30;97986.25;;;21.78;100.00
13661;BME280;6903;49.480;11.102;2022-08-21T07:54:55;97981.41;;;21.88;100.00
13661;BME280;6903;49.480;11.102;2022-08-21T07:57:21;97987.72;;;21.80;100.00
13661;BME280;6903;49.480;11.102;2022-08-21T07:59:46;97988.00;;;21.85;100.00
13661;BME280;6903;49.480;11.102;2022-08-21T08:02:22;97985.13;;;22.08;100.00
13661;BME280;6903;49.480;11.102;2022-08-21T08:04:47;97985.38;;;22.13;100.00
13661;BME280;6903;49.480;11.102;2022-08-21T08:07:12;97988.91;;;22.20;100.00
13661;BME280;6903;49.480;11.102;2022-08-21T08:09:38;97990.09;;;22.11;100.00
13661;BME280;6903;49.480;11.102;2022-08-21T08:12:03;97985.97;;;22.15;100.00
13661;BME280;6903;49.480;11.102;2022-08-21T08:14:29;97985.28;;;22.27;100.00
13661;BME280;6903;49.480;11.102;2022-08-21T08:16:54;97979.63;;;22.43;100.00
13661;BME280;6903;49.480;11.102;2022-08-21T08:19:19;97981.44;;;22.64;100.00
13661;BME280;6903;49.480;11.102;2022-08-21T08:21:45;97974.06;;;22.73;100.00
13661;BME280;6903;49.480;11.102;2022-08-21T08:24:10;97976.16;;;22.77;100.00
13661;BME280;6903;49.480;11.102;2022-08-21T08:26:35;97976.63;;;22.87;100.00
13661;BME280;6903;49.480;11.102;2022-08-21T08:29:01;97976.25;;;22.90;100.00
13661;BME280;6903;49.480;11.102;2022-08-21T08:31:26;97969.09;;;22.76;100.00
13661;BME280;6903;49.480;11.102;2022-08-21T08:33:52;97971.44;;;22.79;100.00
13661;BME280;6903;49.480;11.102;2022-08-21T08:36:18;97968.66;;;22.66;100.00
13661;BME280;6903;49.480;11.102;2022-08-21T08:38:44;97963.34;;;22.79;100.00
13661;BME280;6903;49.480;11.102;2022-08-21T08:41:16;97966.72;;;22.94;100.00
13661;BME280;6903;49.480;11.102;2022-08-21T08:43:55;97972.22;;;23.14;100.00
13661;BME280;6903;49.480;11.102;2022-08-21T08:46:38;97965.06;;;23.27;100.00
13661;BME280;6903;49.480;11.102;2022-08-21T08:49:17;97966.72;;;23.28;100.00
13661;BME280;6903;49.480;11.102;2022-08-21T08:51:54;97966.75;;;23.35;100.00
13661;BME280;6903;49.480;11.102;2022-08-21T08:54:45;97966.75;;;23.35;100.00
13661;BME280;6903;49.480;11.102;2022-08-21T08:57:16;97974.31;;;23.25;100.00
13661;BME280;6903;49.480;11.102;2022-08-21T08:59:50;97965.81;;;23.21;100.00
13661;BME280;6903;49.480;11.102;2022-08-21T09:02:16;97975.88;;;23.40;100.00
13661;BME280;6903;49.480;11.102;2022-08-21T09:04:44;97977.97;;;23.45;100.00
13661;BME280;6903;49.480;11.102;2022-08-21T09:07:37;97970.94;;;23.50;100.00
13661;BME280;6903;49.480;11.102;2022-08-21T09:12:52;97967.72;;;22.87;100.00
13661;BME280;6903;49.480;11.102;2022-08-21T09:15:34;97962.75;;;22.84;100.00
13661;BME280;6903;49.480;11.102;2022-08-21T09:18:23;97967.44;;;23.09;100.00
13661;BME280;6903;49.480;11.102;2022-08-21T09:26:07;97963.56;;;23.85;100.00
13661;BME280;6903;49.480;11.102;2022-08-21T09:28:34;97965.19;;;23.79;100.00
13661;BME280;6903;49.480;11.102;2022-08-21T09:31:23;97969.16;;;23.84;100.00
13661;BME280;6903;49.480;11.102;2022-08-21T09:33:47;97952.63;;;24.06;100.00
13661;BME280;6903;49.480;11.102;2022-08-21T09:36:24;97959.25;;;24.17;100.00
13661;BME280;6903;49.480;11.102;2022-08-21T09:38:54;97960.72;;;24.26;100.00
13661;BME280;6903;49.480;11.102;2022-08-21T09:41:27;97961.31;;;24.41;100.00
13661;BME280;6903;49.480;11.102;2022-08-21T09:43:53;97953.63;;;24.64;100.00
13661;BME280;6903;49.480;11.102;2022-08-21T09:46:24;97960.47;;;24.66;100.00
13661;BME280;6903;49.480;11.102;2022-08-21T09:48:53;97952.38;;;24.60;100.00
13661;BME280;6903;49.480;11.102;2022-08-21T09:51:26;97954.28;;;24.79;100.00
13661;BME280;6903;49.480;11.102;2022-08-21T09:54:14;97945.13;;;24.80;100.00
13661;BME280;6903;49.480;11.102;2022-08-21T09:59:39;97939.88;;;25.49;100.00
13661;BME280;6903;49.480;11.102;2022-08-21T10:07:53;97945.75;;;26.82;100.00
13661;BME280;6903;49.480;11.102;2022-08-21T10:10:25;97940.94;;;26.84;100.00
13661;BME280;6903;49.480;11.102;2022-08-21T10:13:09;97939.56;;;26.75;100.00
13661;BME280;6903;49.480;11.102;2022-08-21T10:18:39;97937.59;;;26.39;100.00
13661;BME280;6903;49.480;11.102;2022-08-21T10:26:26;97941.50;;;27.58;100.00
13661;BME280;6903;49.480;11.102;2022-08-21T10:29:02;97939.34;;;27.78;100.00
13661;BME280;6903;49.480;11.102;2022-08-21T10:31:39;97937.41;;;27.97;100.00
13661;BME280;6903;49.480;11.102;2022-08-21T10:43:01;97926.75;;;28.94;100.00
13661;BME280;6903;49.480;11.102;2022-08-21T10:45:43;97923.09;;;28.88;100.00
13661;BME280;6903;49.480;11.102;2022-08-21T10:48:29;97924.28;;;28.92;100.00
13661;BME280;6903;49.480;11.102;2022-08-21T10:51:20;97917.72;;;28.54;100.00
13661;BME280;6903;49.480;11.102;2022-08-21T10:54:13;97926.63;;;28.31;100.00
13661;BME280;6903;49.480;11.102;2022-08-21T10:56:43;97924.16;;;28.18;100.00
13661;BME280;6903;49.480;11.102;2022-08-21T10:59:28;97918.84;;;28.23;100.00
13661;BME280;6903;49.480;11.102;2022-08-21T11:02:17;97914.94;;;28.31;100.00
13661;BME280;6903;49.480;11.102;2022-08-21T11:04:54;97909.75;;;28.29;100.00
13661;BME280;6903;49.480;11.102;2022-08-21T11:07:37;97902.84;;;28.56;100.00
13661;BME280;6903;49.480;11.102;2022-08-21T11:10:33;97906.09;;;28.35;98.66
13661;BME280;6903;49.480;11.102;2022-08-21T11:13:11;97898.25;;;28.68;99.46
13661;BME280;6903;49.480;11.102;2022-08-21T11:18:27;97894.09;;;29.29;99.42
13661;BME280;6903;49.480;11.102;2022-08-21T11:21:19;97893.88;;;29.58;92.00
13661;BME280;6903;49.480;11.102;2022-08-21T11:23:46;97898.88;;;29.22;90.61
13661;BME280;6903;49.480;11.102;2022-08-21T11:26:50;97898.88;;;28.06;93.17
13661;BME280;6903;49.480;11.102;2022-08-21T11:29:38;97890.13;;;27.51;98.25
13661;BME280;6903;49.480;11.102;2022-08-21T11:32:21;97889.50;;;27.79;97.74
13661;BME280;6903;49.480;11.102;2022-08-21T11:35:14;97890.06;;;28.45;93.21
13661;BME280;6903;49.480;11.102;2022-08-21T11:41:02;97879.56;;;30.07;88.02
13661;BME280;6903;49.480;11.102;2022-08-21T11:43:52;97876.47;;;30.20;73.96
13661;BME280;6903;49.480;11.102;2022-08-21T11:46:44;97878.19;;;30.38;71.19
13661;BME280;6903;49.480;11.102;2022-08-21T11:57:23;97867.00;;;32.54;65.85
13661;BME280;6903;49.480;11.102;2022-08-21T12:02:23;97865.47;;;32.73;61.41
13661;BME280;6903;49.480;11.102;2022-08-21T12:04:55;97858.88;;;32.69;59.56
13661;BME280;6903;49.480;11.102;2022-08-21T12:07:37;97856.09;;;32.54;59.40
13661;BME280;6903;49.480;11.102;2022-08-21T12:10:14;97847.66;;;31.65;59.23
13661;BME280;6903;49.480;11.102;2022-08-21T12:12:41;97847.56;;;30.48;62.88
13661;BME280;6903;49.480;11.102;2022-08-21T12:15:13;97835.59;;;29.66;66.31
13661;BME280;6903;49.480;11.102;2022-08-21T12:17:40;97842.13;;;29.08;70.35
13661;BME280;6903;49.480;11.102;2022-08-21T12:22:52;97833.63;;;28.93;70.77
13661;BME280;6903;49.480;11.102;2022-08-21T12:25:21;97822.50;;;28.55;71.78
13661;BME280;6903;49.480;11.102;2022-08-21T12:27:52;97833.09;;;28.22;73.91
13661;BME280;6903;49.480;11.102;2022-08-21T12:30:22;97823.22;;;28.28;73.23
13661;BME280;6903;49.480;11.102;2022-08-21T12:33:06;97828.50;;;28.11;71.92
13661;BME280;6903;49.480;11.102;2022-08-21T12:35:36;97827.94;;;28.09;70.94
13661;BME280;6903;49.480;11.102;2022-08-21T12:38:27;97821.56;;;28.15;71.04
13661;BME280;6903;49.480;11.102;2022-08-21T12:40:56;97819.31;;;28.58;68.11
13661;BME280;6903;49.480;11.102;2022-08-21T12:43:38;97817.63;;;29.20;67.10
13661;BME280;6903;49.480;11.102;2022-08-21T12:46:06;97824.94;;;29.64;64.78
13661;BME280;6903;49.480;11.102;2022-08-21T12:48:34;97822.50;;;30.46;62.92
13661;BME280;6903;49.480;11.102;2022-08-21T12:51:18;97832.22;;;31.01;62.10
13661;BME280;6903;49.480;11.102;2022-08-21T12:53:52;97824.09;;;31.06;57.06
13661;BME280;6903;49.480;11.102;2022-08-21T12:56:21;97824.44;;;31.10;56.10
13661;BME280;6903;49.480;11.102;2022-08-21T12:59:00;97825.97;;;31.49;56.08
13661;BME280;6903;49.480;11.102;2022-08-21T13:01:49;97820.19;;;31.99;52.51
13661;BME280;6903;49.480;11.102;2022-08-21T13:04:19;97814.75;;;32.04;53.36
13661;BME280;6903;49.480;11.102;2022-08-21T13:06:49;97803.97;;;32.65;53.34
13661;BME280;6903;49.480;11.102;2022-08-21T13:09:20;97806.13;;;33.20;52.39
13661;BME280;6903;49.480;11.102;2022-08-21T13:11:48;97803.75;;;33.59;49.59
13661;BME280;6903;49.480;11.102;2022-08-21T13:14:29;97804.06;;;34.07;48.61
13661;BME280;6903;49.480;11.102;2022-08-21T13:16:56;97809.19;;;34.59;48.16
13661;BME280;6903;49.480;11.102;2022-08-21T13:19:23;97810.84;;;34.60;45.66
13661;BME280;6903;49.480;11.102;2022-08-21T13:21:51;97805.41;;;34.25;44.59
13661;BME280;6903;49.480;11.102;2022-08-21T13:24:30;97811.97;;;33.59;42.66
13661;BME280;6903;49.480;11.102;2022-08-21T13:26:56;97797.97;;;32.27;45.08
13661;BME280;6903;49.480;11.102;2022-08-21T13:29:28;97803.56;;;31.20;48.37
13661;BME280;6903;49.480;11.102;2022-08-21T13:31:57;97794.97;;;30.85;49.11
13661;BME280;6903;49.480;11.102;2022-08-21T13:34:25;97798.25;;;30.44;50.95
13661;BME280;6903;49.480;11.102;2022-08-21T13:36:57;97793.81;;;30.60;51.44
13661;BME280;6903;49.480;11.102;2022-08-21T13:39:24;97797.38;;;31.03;50.22
13661;BME280;6903;49.480;11.102;2022-08-21T13:41:53;97799.53;;;31.01;50.75
13661;BME280;6903;49.480;11.102;2022-08-21T13:44:31;97802.38;;;31.33;50.33
13661;BME280;6903;49.480;11.102;2022-08-21T13:46:59;97791.44;;;31.59;50.12
13661;BME280;6903;49.480;11.102;2022-08-21T13:49:37;97787.53;;;32.09;49.50
13661;BME280;6903;49.480;11.102;2022-08-21T13:52:05;97785.91;;;31.81;48.36
13661;BME280;6903;49.480;11.102;2022-08-21T13:54:40;97788.28;;;31.99;48.15
13661;BME280;6903;49.480;11.102;2022-08-21T13:57:24;97790.41;;;31.65;47.91
13661;BME280;6903;49.480;11.102;2022-08-21T13:59:49;97797.78;;;31.65;48.42